Time;durP1;ratioP1;P1;durP2;ratioP2;P2;SDS_P1;SDS_P2;PMS_P1;PMS_P2;Temp;Humidity;BMP_temperature;BMP_pressure;BME280_temperature;BME280_humidity;BME280_pressure;Samples;Min_cycle;Max_cycle;Signal;HPM_P1;HPM_P2
2022/04/05 00:02:19;;;;;;;46.53;25.30;;;;;8.70;100246.00;;;;10153696;29;20290;-81
2022/04/05 00:07:21;;;;;;;46.53;25.63;;;;;8.80;100248.00;;;;10132963;29;20261;-81
2022/04/05 00:12:23;;;;;;;46.33;25.90;;;;;8.80;100244.00;;;;10177942;29;20210;-80
2022/04/05 00:17:25;;;;;;;49.00;26.00;;;;;8.90;100249.00;;;;10172313;29;20238;-81
2022/04/05 00:22:27;;;;;;;44.07;24.73;;;;;8.90;100251.00;;;;10167318;29;20796;-80
2022/04/05 00:27:29;;;;;;;45.20;26.27;;;;;9.00;100251.00;;;;10172127;29;20205;-81
2022/04/05 00:32:31;;;;;;;43.67;27.07;;;;;9.00;100254.00;;;;10186270;29;20198;-80
2022/04/05 00:37:34;;;;;;;43.57;26.90;;;;;9.00;100247.00;;;;10171820;29;20681;-80
2022/04/05 00:42:36;;;;;;;46.70;24.97;;;;;9.00;100240.00;;;;10170818;29;20278;-80
2022/04/05 00:47:39;;;;;;;45.87;26.00;;;;;9.10;100241.00;;;;10157149;29;20288;-81
2022/04/05 00:52:41;;;;;;;42.83;25.40;;;;;9.10;100239.00;;;;10186633;29;20225;-81
2022/04/05 00:57:45;;;;;;;51.30;27.50;;;;;9.10;100242.00;;;;10170357;29;20221;-80
2022/04/05 01:02:50;;;;;;;44.83;24.50;;;;;9.20;100237.00;;;;10170425;29;20281;-81
2022/04/05 01:07:55;;;;;;;40.97;23.10;;;;;9.20;100244.00;;;;10187280;29;20858;-82
2022/04/05 01:12:57;;;;;;;40.60;23.40;;;;;9.30;100236.00;;;;10171155;29;20190;-80
2022/04/05 01:18:00;;;;;;;41.40;22.60;;;;;9.30;100238.00;;;;10186224;29;20202;-80
2022/04/05 01:23:02;;;;;;;42.53;23.73;;;;;9.30;100233.00;;;;10150833;29;20234;-80
2022/04/05 01:28:04;;;;;;;39.07;22.33;;;;;9.40;100240.00;;;;10147965;29;20203;-81
2022/04/05 01:33:06;;;;;;;47.50;24.93;;;;;9.40;100248.00;;;;10185793;29;20210;-80
2022/04/05 01:38:10;;;;;;;44.93;24.13;;;;;9.50;100244.00;;;;10185266;29;20226;-80
2022/04/05 01:43:13;;;;;;;39.47;23.83;;;;;9.50;100249.00;;;;10182900;29;20247;-81
2022/04/05 01:48:15;;;;;;;41.57;24.23;;;;;9.50;100227.00;;;;10168012;29;20207;-82
2022/04/05 01:53:17;;;;;;;44.57;24.73;;;;;9.50;100232.00;;;;10168644;29;20213;-82
2022/04/05 01:58:19;;;;;;;40.67;23.73;;;;;9.50;100235.00;;;;10167671;29;20198;-81
2022/04/05 02:03:21;;;;;;;46.90;24.03;;;;;9.50;100232.00;;;;10151292;29;20266;-82
2022/04/05 02:08:24;;;;;;;37.70;24.50;;;;;9.60;100228.00;;;;10167407;29;20225;-82
2022/04/05 02:13:26;;;;;;;42.13;24.73;;;;;9.60;100227.00;;;;10168158;29;20198;-82
2022/04/05 02:18:32;;;;;;;36.80;20.93;;;;;9.60;100223.00;;;;10167810;29;20258;-82
2022/04/05 02:23:36;;;;;;;44.27;22.63;;;;;9.70;100226.00;;;;10145101;29;20230;-81
2022/04/05 02:28:45;;;;;;;40.37;23.97;;;;;9.70;100230.00;;;;10151836;29;20218;-81
2022/04/05 02:33:50;;;;;;;37.87;22.67;;;;;9.70;100232.00;;;;10183600;29;20198;-81
2022/04/05 02:39:06;;;;;;;39.40;22.93;;;;;9.70;100236.00;;;;10182803;29;20241;-82
2022/04/05 02:44:10;;;;;;;44.17;23.13;;;;;9.70;100229.00;;;;10160125;29;20221;-82
2022/04/05 02:49:13;;;;;;;48.37;23.07;;;;;9.70;100243.00;;;;10166760;29;20202;-82
2022/04/05 02:54:18;;;;;;;34.53;20.20;;;;;9.70;100224.00;;;;10135821;29;20353;-83
2022/04/05 02:59:20;;;;;;;35.67;21.60;;;;;9.70;100220.00;;;;10142714;29;20237;-82
2022/04/05 03:04:25;;;;;;;38.53;23.27;;;;;9.70;100226.00;;;;10176147;29;20199;-80
2022/04/05 03:09:27;;;;;;;40.20;23.03;;;;;9.70;100223.00;;;;10162823;29;20282;-81
2022/04/05 03:14:30;;;;;;;39.70;22.97;;;;;9.70;100230.00;;;;10143891;29;20305;-80
2022/04/05 03:19:34;;;;;;;38.57;22.70;;;;;9.80;100214.00;;;;10143540;29;20304;-81
2022/04/05 03:24:38;;;;;;;34.67;21.60;;;;;9.80;100220.00;;;;10214707;29;20237;-82
2022/04/05 03:29:41;;;;;;;45.73;22.73;;;;;9.80;100220.00;;;;10180671;29;20205;-81
2022/04/05 03:34:43;;;;;;;38.10;21.77;;;;;9.80;100213.00;;;;10167516;29;20206;-81
2022/04/05 03:39:46;;;;;;;39.83;22.17;;;;;9.80;100226.00;;;;10182881;29;20253;-82
2022/04/05 03:44:48;;;;;;;40.33;20.83;;;;;9.80;100216.00;;;;10198292;29;20210;-80
2022/04/05 03:49:51;;;;;;;36.60;20.83;;;;;9.80;100217.00;;;;10182623;29;20198;-80
2022/04/05 03:54:53;;;;;;;41.40;21.07;;;;;9.80;100213.00;;;;10201305;29;20664;-81
2022/04/05 03:59:58;;;;;;;38.03;21.77;;;;;9.80;100214.00;;;;10222279;29;20221;-80
2022/04/05 04:05:01;;;;;;;37.97;20.60;;;;;9.80;100215.00;;;;10159396;29;20191;-80
2022/04/05 04:10:04;;;;;;;36.43;22.70;;;;;9.80;100213.00;;;;10187552;29;20204;-80
2022/04/05 04:15:08;;;;;;;46.10;23.37;;;;;9.80;100207.00;;;;10188370;29;20242;-80
2022/04/05 04:20:10;;;;;;;40.27;22.20;;;;;9.80;100219.00;;;;10187695;29;20210;-80
2022/04/05 04:25:14;;;;;;;43.80;21.30;;;;;9.80;100213.00;;;;10173063;29;20216;-80
2022/04/05 04:30:17;;;;;;;42.80;22.37;;;;;9.80;100213.00;;;;10132602;29;20269;-81
2022/04/05 04:35:18;;;;;;;42.07;22.63;;;;;9.80;100212.00;;;;10163877;29;20544;-81
2022/04/05 04:40:21;;;;;;;38.53;24.23;;;;;9.80;100215.00;;;;10176896;29;20230;-80
2022/04/05 04:45:26;;;;;;;40.97;21.97;;;;;9.80;100208.00;;;;10187637;29;20206;-80
2022/04/05 04:50:28;;;;;;;40.10;22.90;;;;;9.80;100223.00;;;;10187034;29;20229;-81
2022/04/05 04:55:32;;;;;;;38.67;21.53;;;;;9.80;100226.00;;;;10171267;29;20257;-81
2022/04/05 05:00:54;;;;;;;30.80;20.40;;;;;9.90;100222.00;;;;10173341;29;20238;-79
2022/04/05 05:05:56;;;;;;;36.83;22.47;;;;;9.90;100222.00;;;;10168773;29;20195;-80
2022/04/05 05:10:58;;;;;;;32.43;22.00;;;;;9.90;100217.00;;;;10178256;29;20191;-80
2022/04/05 05:16:00;;;;;;;32.87;21.40;;;;;9.90;100219.00;;;;10162728;29;20268;-80
2022/04/05 05:21:02;;;;;;;29.03;19.83;;;;;9.90;100224.00;;;;10147624;29;20278;-80
2022/04/05 05:26:04;;;;;;;33.53;20.23;;;;;9.90;100223.00;;;;10146390;29;20203;-79
2022/04/05 05:31:06;;;;;;;30.63;20.73;;;;;9.90;100231.00;;;;10162142;29;20203;-79
2022/04/05 05:36:08;;;;;;;29.37;19.43;;;;;9.90;100228.00;;;;10145752;29;20278;-79
2022/04/05 05:41:10;;;;;;;29.10;18.47;;;;;10.00;100234.00;;;;10144953;29;20245;-80
2022/04/05 05:46:12;;;;;;;31.13;18.77;;;;;10.00;100235.00;;;;10144679;29;20238;-80
2022/04/05 05:51:14;;;;;;;29.27;17.50;;;;;10.00;100253.00;;;;10179871;29;20195;-79
2022/04/05 05:56:16;;;;;;;25.13;17.00;;;;;10.00;100249.00;;;;10165814;29;20198;-80
2022/04/05 06:01:18;;;;;;;24.57;15.63;;;;;10.10;100254.00;;;;10182768;29;20214;-79
2022/04/05 06:06:21;;;;;;;26.23;17.03;;;;;10.10;100249.00;;;;10182835;29;20190;-80
2022/04/05 06:11:23;;;;;;;26.50;17.17;;;;;10.20;100259.00;;;;10182451;29;20237;-80
2022/04/05 06:16:26;;;;;;;25.13;15.43;;;;;10.30;100254.00;;;;10182511;29;20195;-81
2022/04/05 06:21:34;;;;;;;28.23;16.53;;;;;10.40;100267.00;;;;10159267;29;20227;-79
2022/04/05 06:26:36;;;;;;;31.00;17.73;;;;;10.50;100268.00;;;;10142127;29;20203;-80
2022/04/05 06:31:38;;;;;;;26.50;18.30;;;;;10.70;100269.00;;;;10177732;29;20254;-79
2022/04/05 06:36:40;;;;;;;29.07;18.17;;;;;10.70;100278.00;;;;10172785;29;20226;-80
2022/04/05 06:41:42;;;;;;;26.47;19.30;;;;;10.90;100275.00;;;;10160083;29;20230;-80
2022/04/05 06:46:57;;;;;;;28.93;20.47;;;;;10.90;100271.00;;;;10535352;28;20546;-78
2022/04/05 06:51:59;;;;;;;31.93;20.30;;;;;11.10;100275.00;;;;10488617;28;20243;-80
2022/04/05 06:57:01;;;;;;;30.00;21.33;;;;;11.20;100278.00;;;;10501238;28;20193;-81
2022/04/05 07:02:03;;;;;;;31.67;21.17;;;;;11.20;100278.00;;;;10500615;28;20208;-80
2022/04/05 07:07:05;;;;;;;36.30;20.70;;;;;11.20;100286.00;;;;10459287;28;20208;-80
2022/04/05 07:12:07;;;;;;;26.20;19.33;;;;;11.10;100279.00;;;;10476364;28;20652;-80
2022/04/05 07:17:09;;;;;;;21.70;17.70;;;;;10.80;100284.00;;;;10443715;28;20197;-79
2022/04/05 07:22:11;;;;;;;24.47;18.63;;;;;10.90;100293.00;;;;10489118;28;20251;-80
2022/04/05 07:27:14;;;;;;;26.40;18.70;;;;;11.20;100289.00;;;;10500239;28;20221;-79
2022/04/05 07:32:16;;;;;;;23.63;18.63;;;;;11.30;100288.00;;;;10486446;28;20198;-78
2022/04/05 07:37:18;;;;;;;27.20;17.80;;;;;11.10;100290.00;;;;10475882;28;20209;-79
2022/04/05 07:42:20;;;;;;;21.43;15.93;;;;;11.00;100287.00;;;;10458693;28;20715;-78
2022/04/05 07:47:22;;;;;;;23.00;17.87;;;;;11.40;100291.00;;;;10459894;28;20193;-78
2022/04/05 07:52:24;;;;;;;18.30;15.90;;;;;12.10;100289.00;;;;10490245;28;20625;-78
2022/04/05 07:57:26;;;;;;;18.37;15.87;;;;;12.10;100288.00;;;;10477323;28;20208;-78
2022/04/05 08:02:28;;;;;;;19.07;15.40;;;;;11.60;100291.00;;;;10471756;28;20676;-78
2022/04/05 08:07:38;;;;;;;21.90;16.73;;;;;11.90;100293.00;;;;10455435;28;20193;-78
2022/04/05 08:12:43;;;;;;;19.73;15.87;;;;;12.10;100292.00;;;;10441703;28;20228;-79
2022/04/05 08:17:45;;;;;;;24.40;15.30;;;;;11.80;100295.00;;;;10412674;28;20209;-79
2022/04/05 08:22:48;;;;;;;18.43;15.83;;;;;11.90;100294.00;;;;10447886;28;20263;-79
2022/04/05 08:27:50;;;;;;;17.97;16.07;;;;;12.10;100300.00;;;;10453610;28;20272;-79
2022/04/05 08:32:52;;;;;;;19.47;16.10;;;;;12.30;100287.00;;;;10493717;28;20196;-79
2022/04/05 08:37:54;;;;;;;19.03;15.07;;;;;12.50;100289.00;;;;10494842;28;20583;-79
2022/04/05 08:42:57;;;;;;;19.50;14.87;;;;;12.70;100290.00;;;;10510913;28;20278;-79
2022/04/05 08:48:00;;;;;;;15.03;13.33;;;;;13.20;100288.00;;;;10504559;28;20220;-79
2022/04/05 08:53:03;;;;;;;14.17;12.70;;;;;12.40;100298.00;;;;10466691;28;20197;-79
2022/04/05 08:58:09;;;;;;;15.67;12.87;;;;;11.90;100311.00;;;;10510170;28;20208;-80
2022/04/05 09:03:11;;;;;;;13.20;11.60;;;;;11.50;100316.00;;;;10510473;28;20606;-79
2022/04/05 09:08:28;;;;;;;16.90;12.27;;;;;11.70;100315.00;;;;10493069;28;20196;-78
2022/04/05 09:13:31;;;;;;;15.90;13.33;;;;;12.60;100305.00;;;;10526478;28;20429;-78
2022/04/05 09:18:37;;;;;;;19.90;13.43;;;;;13.50;100309.00;;;;10509553;28;20196;-78
2022/04/05 09:23:43;;;;;;;12.90;11.03;;;;;13.50;100315.00;;;;10490836;28;20217;-79
2022/04/05 09:28:48;;;;;;;12.40;11.20;;;;;13.00;100304.00;;;;10455599;28;20217;-78
2022/04/05 09:34:08;;;;;;;11.37;9.97;;;;;12.40;100332.00;;;;10469453;28;20198;-78
2022/04/05 09:39:15;;;;;;;15.17;10.83;;;;;12.30;100324.00;;;;10425694;28;20210;-78
2022/04/05 09:44:28;;;;;;;14.63;10.90;;;;;13.00;100324.00;;;;10442320;28;20210;-78
2022/04/05 09:49:34;;;;;;;12.50;11.27;;;;;13.60;100330.00;;;;10463961;28;20224;-78
2022/04/05 09:54:36;;;;;;;11.83;10.60;;;;;13.00;100346.00;;;;10516756;28;20232;-78
2022/04/05 09:59:40;;;;;;;13.27;10.83;;;;;13.80;100334.00;;;;10507293;28;20662;-78
2022/04/05 10:05:00;;;;;;;9.90;8.90;;;;;14.40;100318.00;;;;10443090;28;20240;-78
2022/04/05 10:10:07;;;;;;;11.30;10.20;;;;;14.60;100311.00;;;;10423966;28;20190;-79
2022/04/05 10:15:11;;;;;;;11.07;9.67;;;;;14.80;100319.00;;;;10440578;28;20560;-79
2022/04/05 10:20:13;;;;;;;8.50;7.70;;;;;14.70;100311.00;;;;10423967;28;20210;-79
2022/04/05 10:25:15;;;;;;;8.77;7.87;;;;;14.50;100325.00;;;;10454398;28;20248;-79
2022/04/05 10:30:24;;;;;;;8.93;8.03;;;;;13.80;100333.00;;;;10484514;28;20219;-79
2022/04/05 10:35:29;;;;;;;8.83;7.80;;;;;13.30;100348.00;;;;10507913;28;20189;-79
2022/04/05 10:40:31;;;;;;;10.67;8.60;;;;;13.60;100349.00;;;;10523903;28;20251;-78
2022/04/05 10:45:42;;;;;;;9.60;8.70;;;;;14.50;100335.00;;;;10491007;28;20295;-78
2022/04/05 10:50:46;;;;;;;9.37;8.40;;;;;15.10;100324.00;;;;10506938;28;20199;-78
2022/04/05 10:56:14;;;;;;;8.33;7.63;;;;;15.00;100314.00;;;;10431721;28;20194;-78
2022/04/05 11:01:20;;;;;;;10.73;7.83;;;;;14.50;100315.00;;;;10442542;28;20198;-77
2022/04/05 11:06:23;;;;;;;9.03;7.77;;;;;15.10;100314.00;;;;10444999;28;20210;-78
2022/04/05 11:11:26;;;;;;;9.70;7.43;;;;;15.60;100306.00;;;;10424902;28;20198;-78
2022/04/05 11:16:29;;;;;;;7.83;7.13;;;;;15.60;100312.00;;;;10440746;28;20297;-78
2022/04/05 11:21:31;;;;;;;9.73;7.83;;;;;15.40;100307.00;;;;10441049;28;20214;-78
2022/04/05 11:26:35;;;;;;;9.57;7.87;;;;;15.90;100304.00;;;;10492695;28;20213;-79
2022/04/05 11:31:40;;;;;;;8.57;7.77;;;;;16.40;100297.00;;;;10498984;28;20200;-78
2022/04/05 11:36:45;;;;;;;9.00;8.13;;;;;16.90;100288.00;;;;10496837;28;20220;-78
2022/04/05 11:41:56;;;;;;;7.93;7.22;;;;;16.70;100291.00;;;;10512645;28;20208;-78
2022/04/05 11:47:00;;;;;;;8.77;7.20;;;;;16.10;100289.00;;;;10489978;28;20225;-78
2022/04/05 11:52:03;;;;;;;6.40;5.60;;;;;15.50;100285.00;;;;10456554;28;20193;-78
2022/04/05 11:57:05;;;;;;;7.70;6.93;;;;;15.20;100289.00;;;;10485006;28;20228;-79
2022/04/05 12:02:07;;;;;;;7.63;6.93;;;;;15.90;100270.00;;;;10453135;28;20212;-78
2022/04/05 12:07:09;;;;;;;6.43;5.83;;;;;16.50;100267.00;;;;10486849;28;20206;-78
2022/04/05 12:12:12;;;;;;;6.83;5.87;;;;;16.60;100274.00;;;;10486659;28;20252;-78
2022/04/05 12:17:14;;;;;;;6.17;5.57;;;;;16.40;100270.00;;;;10469790;28;20201;-78
2022/04/05 12:22:18;;;;;;;6.20;5.63;;;;;15.40;100274.00;;;;10509130;28;20390;-78
2022/04/05 12:27:23;;;;;;;6.07;5.10;;;;;14.80;100285.00;;;;10511669;28;20212;-78
2022/04/05 12:32:33;;;;;;;5.17;4.77;;;;;15.50;100255.00;;;;10494771;28;20193;-77
2022/04/05 12:37:35;;;;;;;5.73;4.97;;;;;17.00;100263.00;;;;10528593;28;20216;-78
2022/04/05 12:42:39;;;;;;;5.43;4.80;;;;;17.00;100266.00;;;;10519074;28;20206;-77
2022/04/05 12:47:46;;;;;;;4.77;4.27;;;;;16.10;100259.00;;;;10461246;28;20199;-77
2022/04/05 12:52:58;;;;;;;5.53;4.70;;;;;15.60;100263.00;;;;10478743;28;20205;-77
2022/04/05 12:58:00;;;;;;;5.93;4.20;;;;;15.60;100260.00;;;;10528295;28;20766;-78
2022/04/05 13:03:11;;;;;;;5.00;4.23;;;;;15.90;100274.00;;;;10466717;28;20610;-78
2022/04/05 13:08:28;;;;;;;4.63;4.23;;;;;15.60;100239.00;;;;10485440;28;20193;-77
2022/04/05 13:13:32;;;;;;;3.60;3.30;;;;;14.70;100277.00;;;;10468252;28;20662;-77
2022/04/05 13:18:42;;;;;;;3.50;3.20;;;;;14.90;100279.00;;;;10501100;28;20192;-77
2022/04/05 13:24:05;;;;;;;3.10;2.70;;;;;15.00;100276.00;;;;10511727;28;20212;-78
2022/04/05 13:29:16;;;;;;;3.17;2.97;;;;;14.30;100278.00;;;;10521752;28;20733;-77
2022/04/05 13:34:21;;;;;;;3.27;2.97;;;;;13.80;100278.00;;;;10485030;28;20220;-78
2022/04/05 13:39:24;;;;;;;4.40;3.30;;;;;13.70;100275.00;;;;10468291;28;20225;-77
2022/04/05 13:44:26;;;;;;;3.60;3.30;;;;;13.90;100281.00;;;;10483772;28;20217;-78
2022/04/05 13:49:28;;;;;;;3.70;3.40;;;;;14.00;100276.00;;;;10443233;28;20236;-78
2022/04/05 13:54:30;;;;;;;4.27;3.87;;;;;13.80;100266.00;;;;10460323;28;20194;-78
2022/04/05 13:59:33;;;;;;;4.83;4.43;;;;;13.50;100268.00;;;;10482227;28;20240;-79
2022/04/05 14:04:35;;;;;;;4.40;4.07;;;;;13.50;100267.00;;;;10449123;28;20206;-79
2022/04/05 14:09:37;;;;;;;8.13;4.90;;;;;14.00;100263.00;;;;10482271;28;20281;-79
2022/04/05 14:14:39;;;;;;;4.77;4.37;;;;;14.30;100247.00;;;;10465108;28;20181;-78
2022/04/05 14:19:41;;;;;;;5.73;5.10;;;;;14.60;100246.00;;;;10482551;28;20197;-78
2022/04/05 14:24:43;;;;;;;7.43;4.57;;;;;15.50;100193.00;;;;10440305;28;20232;-78
2022/04/05 14:29:45;;;;;;;8.03;5.00;;;;;15.90;100234.00;;;;10439275;28;20277;-79
2022/04/05 14:34:47;;;;;;;5.80;5.13;;;;;16.70;100203.00;;;;10423897;28;20187;-78
2022/04/05 14:39:49;;;;;;;5.72;5.22;;;;;17.50;100219.00;;;;10422843;28;20313;-78
2022/04/05 14:44:50;;;;;;;6.20;5.57;;;;;16.70;100218.00;;;;10424049;28;20218;-78
2022/04/05 14:50:13;;;;;;;6.70;4.97;;;;;16.90;100211.00;;;;10471137;28;20197;-79
2022/04/05 14:55:35;;;;;;;5.28;4.72;;;;;17.20;100206.00;;;;10440509;28;20260;-78
2022/04/05 15:00:37;;;;;;;6.30;4.53;;;;;16.20;100202.00;;;;10421925;28;20194;-78
2022/04/05 15:05:39;;;;;;;8.02;5.80;;;;;15.30;100196.00;;;;10425293;28;20208;-78
2022/04/05 15:10:41;;;;;;;9.43;6.43;;;;;15.10;100189.00;;;;10454168;28;20197;-78
2022/04/05 15:15:43;;;;;;;8.03;5.27;;;;;15.30;100185.00;;;;10487311;28;20288;-78
2022/04/05 15:20:45;;;;;;;7.83;5.57;;;;;14.90;100181.00;;;;10487873;28;20225;-78
2022/04/05 15:25:47;;;;;;;6.27;5.53;;;;;14.50;100174.00;;;;10504301;28;20205;-78
2022/04/05 15:30:49;;;;;;;9.50;5.80;;;;;14.50;100171.00;;;;10527945;28;20305;-78
2022/04/05 15:35:51;;;;;;;7.50;5.20;;;;;14.60;100171.00;;;;10512413;28;20193;-78
2022/04/05 15:40:53;;;;;;;6.37;5.27;;;;;14.30;100170.00;;;;10483618;28;20300;-78
2022/04/05 15:45:55;;;;;;;11.27;6.73;;;;;14.10;100161.00;;;;10469182;28;20225;-77
2022/04/05 15:50:57;;;;;;;11.03;6.77;;;;;14.00;100164.00;;;;10451767;28;20201;-77
2022/04/05 15:55:59;;;;;;;7.77;6.90;;;;;13.80;100157.00;;;;10528045;28;20193;-78
2022/04/05 16:01:01;;;;;;;9.53;6.93;;;;;13.60;100163.00;;;;10473192;28;20197;-77
2022/04/05 16:06:03;;;;;;;11.10;7.67;;;;;13.50;100158.00;;;;10469176;28;20214;-78
2022/04/05 16:11:05;;;;;;;11.03;8.20;;;;;13.40;100159.00;;;;10484821;28;20196;-78
2022/04/05 16:16:10;;;;;;;9.90;7.47;;;;;13.30;100160.00;;;;10467420;28;20194;-77
2022/04/05 16:21:12;;;;;;;10.07;6.97;;;;;13.10;100157.00;;;;10490225;28;20897;-78
2022/04/05 16:26:14;;;;;;;11.47;7.07;;;;;13.10;100159.00;;;;10524443;28;20254;-78
2022/04/05 16:31:16;;;;;;;11.37;7.40;;;;;13.40;100152.00;;;;10483710;28;20189;-77
2022/04/05 16:36:19;;;;;;;13.57;7.73;;;;;13.20;100166.00;;;;10483673;28;20308;-77
2022/04/05 16:41:21;;;;;;;14.40;9.43;;;;;12.90;100176.00;;;;10500117;28;20194;-77
2022/04/05 16:46:23;;;;;;;12.83;9.67;;;;;12.60;100182.00;;;;10482902;28;20233;-78
2022/04/05 16:51:25;;;;;;;12.73;8.17;;;;;12.50;100176.00;;;;10457151;28;20191;-78
2022/04/05 16:56:27;;;;;;;15.93;8.97;;;;;12.60;100175.00;;;;10524030;28;20242;-77
2022/04/05 17:01:30;;;;;;;15.93;9.43;;;;;12.60;100174.00;;;;10436744;28;20202;-77
2022/04/05 17:06:32;;;;;;;14.03;9.00;;;;;12.50;100179.00;;;;10424290;28;20206;-77
2022/04/05 17:11:34;;;;;;;13.50;7.93;;;;;12.40;100198.00;;;;10424252;28;20605;-77
2022/04/05 17:16:36;;;;;;;12.70;7.03;;;;;12.30;100198.00;;;;10440226;28;20213;-77
2022/04/05 17:21:38;;;;;;;11.80;6.87;;;;;12.20;100197.00;;;;10426031;28;20208;-77
2022/04/05 17:26:41;;;;;;;14.83;6.87;;;;;12.00;100185.00;;;;10505240;28;20205;-77
2022/04/05 17:31:43;;;;;;;9.47;7.10;;;;;11.90;100183.00;;;;10489184;28;20250;-77
2022/04/05 17:36:45;;;;;;;14.60;5.77;;;;;11.80;100192.00;;;;10489184;28;20209;-80
2022/04/05 17:41:47;;;;;;;12.60;7.07;;;;;11.70;100195.00;;;;10521997;28;20253;-77
2022/04/05 17:46:49;;;;;;;11.17;5.87;;;;;11.60;100189.00;;;;10502546;28;20247;-78
2022/04/05 17:51:51;;;;;;;11.80;6.77;;;;;11.50;100193.00;;;;10459126;28;20196;-77
2022/04/05 17:56:56;;;;;;;20.23;7.60;;;;;11.50;100188.00;;;;10521054;28;20268;-77
2022/04/05 18:01:58;;;;;;;13.53;6.97;;;;;11.50;100184.00;;;;10467668;28;20206;-77
2022/04/05 18:07:04;;;;;;;11.17;6.00;;;;;11.40;100179.00;;;;10447340;28;20205;-78
2022/04/05 18:12:08;;;;;;;14.10;7.60;;;;;11.30;100178.00;;;;10446551;28;20184;-77
2022/04/05 18:17:10;;;;;;;12.13;7.10;;;;;11.30;100181.00;;;;10434061;28;20194;-78
2022/04/05 18:22:13;;;;;;;20.50;7.87;;;;;11.10;100188.00;;;;10438878;28;20248;-78
2022/04/05 18:27:15;;;;;;;17.23;6.83;;;;;11.00;100187.00;;;;10421658;28;20206;-78
2022/04/05 18:32:20;;;;;;;13.23;6.70;;;;;11.00;100190.00;;;;10493154;28;20193;-77
2022/04/05 18:37:23;;;;;;;15.80;7.00;;;;;10.90;100195.00;;;;10504360;28;20209;-78
2022/04/05 18:42:24;;;;;;;17.10;7.07;;;;;10.90;100193.00;;;;10503382;28;20208;-77
2022/04/05 18:47:28;;;;;;;19.40;7.93;;;;;10.80;100180.00;;;;10503821;28;20204;-78
2022/04/05 18:52:29;;;;;;;17.30;7.43;;;;;10.60;100199.00;;;;10470906;28;20288;-77
2022/04/05 18:57:31;;;;;;;19.63;8.00;;;;;10.60;100189.00;;;;10478698;28;20251;-77
2022/04/05 19:02:33;;;;;;;21.97;7.77;;;;;10.60;100189.00;;;;10421591;28;20292;-78
2022/04/05 19:07:37;;;;;;;19.30;6.30;;;;;10.60;100185.00;;;;10485899;28;20202;-77
2022/04/05 19:12:39;;;;;;;11.17;6.03;;;;;10.60;100195.00;;;;10461368;28;20198;-78
2022/04/05 19:17:40;;;;;;;18.77;6.67;;;;;10.50;100199.00;;;;10478301;28;20193;-77
2022/04/05 19:22:45;;;;;;;18.97;6.27;;;;;10.50;100193.00;;;;10494661;28;20801;-77
2022/04/05 19:27:49;;;;;;;17.03;6.77;;;;;10.60;100196.00;;;;10477893;28;20228;-80
2022/04/05 19:32:52;;;;;;;18.30;5.83;;;;;10.60;100202.00;;;;10535795;28;20199;-77
2022/04/05 19:37:54;;;;;;;13.53;5.77;;;;;10.60;100197.00;;;;10519406;28;20209;-77
2022/04/05 19:42:56;;;;;;;15.13;5.60;;;;;10.60;100208.00;;;;10502026;28;20679;-77
2022/04/05 19:47:58;;;;;;;14.67;5.40;;;;;10.60;100213.00;;;;10502401;28;20215;-78
2022/04/05 19:53:01;;;;;;;17.00;6.60;;;;;10.60;100209.00;;;;10462432;28;20205;-78
2022/04/05 19:58:04;;;;;;;17.73;5.77;;;;;10.60;100215.00;;;;10438507;28;20190;-78
2022/04/05 20:03:06;;;;;;;19.57;6.33;;;;;10.60;100208.00;;;;10468960;28;20286;-77
2022/04/05 20:08:08;;;;;;;13.77;6.40;;;;;10.50;100209.00;;;;10467414;28;20325;-77
2022/04/05 20:13:10;;;;;;;20.67;7.00;;;;;10.50;100211.00;;;;10451426;28;20201;-78
2022/04/05 20:23:33;;;;;;;17.67;6.10;;;;;10.50;100203.00;;;;10441738;28;20209;-77
2022/04/05 20:28:35;;;;;;;18.13;6.30;;;;;10.50;100205.00;;;;10427034;28;20541;-78
2022/04/05 20:33:41;;;;;;;17.73;5.57;;;;;10.50;100207.00;;;;10451422;28;20197;-78
2022/04/05 20:38:44;;;;;;;13.80;5.63;;;;;10.50;100213.00;;;;10435998;28;20265;-78
2022/04/05 20:43:45;;;;;;;16.30;6.53;;;;;10.50;100215.00;;;;10442519;28;20221;-78
2022/04/05 20:48:48;;;;;;;18.60;5.37;;;;;10.40;100204.00;;;;10444664;28;20251;-78
2022/04/05 20:53:50;;;;;;;16.17;5.70;;;;;10.40;100210.00;;;;10478216;28;20201;-79
2022/04/05 20:58:52;;;;;;;13.07;4.97;;;;;10.40;100200.00;;;;10491011;28;20189;-78
2022/04/05 21:03:53;;;;;;;19.00;6.47;;;;;10.30;100204.00;;;;10482844;28;20668;-78
2022/04/05 21:08:55;;;;;;;14.20;5.87;;;;;10.30;100205.00;;;;10464226;28;20676;-78
2022/04/05 21:13:58;;;;;;;14.40;5.53;;;;;10.20;100198.00;;;;10480968;28;20197;-78
2022/04/05 21:19:00;;;;;;;15.30;5.43;;;;;10.20;100191.00;;;;10465107;28;20197;-78
2022/04/05 21:24:02;;;;;;;15.87;5.60;;;;;10.20;100198.00;;;;10440557;28;20210;-78
2022/04/05 21:34:26;;;;;;;15.67;5.90;;;;;10.10;100191.00;;;;10468145;28;20225;-78
2022/04/05 21:39:29;;;;;;;15.20;5.87;;;;;10.10;100179.00;;;;10423709;28;20288;-78
2022/04/05 21:44:31;;;;;;;16.33;6.33;;;;;10.00;100188.00;;;;10423605;28;20217;-78
2022/04/05 21:49:36;;;;;;;19.70;6.50;;;;;10.00;100174.00;;;;10440345;28;20187;-78
2022/04/05 21:54:38;;;;;;;24.77;6.80;;;;;9.90;100174.00;;;;10456781;28;20197;-78
2022/04/05 21:59:40;;;;;;;16.07;5.30;;;;;9.90;100167.00;;;;10460406;28;20198;-78
2022/04/05 22:04:42;;;;;;;19.60;5.20;;;;;9.90;100176.00;;;;10470912;28;20206;-78
2022/04/05 22:09:44;;;;;;;18.53;5.40;;;;;9.90;100170.00;;;;10463732;28;20239;-78
2022/04/05 22:14:46;;;;;;;11.50;4.43;;;;;9.90;100171.00;;;;10496732;28;20296;-78
2022/04/05 22:19:48;;;;;;;16.20;5.27;;;;;9.90;100166.00;;;;10463446;28;20185;-78
2022/04/05 22:24:50;;;;;;;16.57;5.53;;;;;9.80;100157.00;;;;10498652;28;20208;-78
2022/04/05 22:29:52;;;;;;;18.03;5.23;;;;;9.80;100153.00;;;;10500550;28;20232;-78
2022/04/05 22:34:54;;;;;;;10.87;4.40;;;;;9.80;100152.00;;;;10479969;28;20232;-78
2022/04/05 22:39:56;;;;;;;16.27;4.90;;;;;9.70;100150.00;;;;10462234;28;20263;-78
2022/04/05 22:44:58;;;;;;;12.50;4.23;;;;;9.70;100144.00;;;;10462254;28;20248;-78
2022/04/05 22:50:01;;;;;;;15.20;4.67;;;;;9.70;100153.00;;;;10437735;28;20198;-78
2022/04/05 22:55:05;;;;;;;17.87;5.00;;;;;9.70;100142.00;;;;10528783;28;20643;-78
2022/04/05 23:00:07;;;;;;;18.47;4.83;;;;;9.70;100139.00;;;;10487278;28;20697;-78
2022/04/05 23:05:10;;;;;;;17.43;5.20;;;;;9.60;100136.00;;;;10520631;28;20201;-78
2022/04/05 23:10:12;;;;;;;11.90;4.27;;;;;9.60;100128.00;;;;10503360;28;20200;-77
2022/04/05 23:15:14;;;;;;;15.83;5.13;;;;;9.60;100126.00;;;;10422650;28;20252;-78
2022/04/05 23:20:16;;;;;;;14.27;4.80;;;;;9.60;100134.00;;;;10437063;28;20637;-78
2022/04/05 23:25:18;;;;;;;12.10;4.17;;;;;9.50;100125.00;;;;10499864;28;20255;-77
2022/04/05 23:30:20;;;;;;;13.57;4.23;;;;;9.50;100123.00;;;;10491587;28;20679;-77
2022/04/05 23:35:22;;;;;;;11.07;4.10;;;;;9.50;100124.00;;;;10470252;28;20280;-78
2022/04/05 23:40:24;;;;;;;12.47;4.70;;;;;9.50;100119.00;;;;10469370;28;20210;-78
2022/04/05 23:45:26;;;;;;;14.07;4.47;;;;;9.50;100119.00;;;;10458509;28;20288;-77
2022/04/05 23:50:28;;;;;;;19.33;5.47;;;;;9.50;100114.00;;;;10430898;28;20186;-78
2022/04/05 23:55:30;;;;;;;19.07;4.60;;;;;9.50;100117.00;;;;10508087;28;20250;-78
